Time;durP1;ratioP1;P1;durP2;ratioP2;P2;SDS_P1;SDS_P2;PMS_P1;PMS_P2;Temp;Humidity;BMP_temperature;BMP_pressure;BME280_temperature;BME280_humidity;BME280_pressure;Samples;Min_cycle;Max_cycle;Signal;HPM_P1;HPM_P2
2021/03/03 00:02:20;;;;;;;17.13;5.40;;;5.70;99.90;;;;;;10192063;28;20043;-48
2021/03/03 00:07:41;;;;;;;17.98;4.85;;;5.70;99.90;;;;;;10203234;28;20048;-48
2021/03/03 00:13:02;;;;;;;13.90;4.90;;;5.70;99.90;;;;;;10201833;28;20074;-48
2021/03/03 00:18:23;;;;;;;16.00;4.95;;;5.60;99.90;;;;;;10204597;28;20160;-48
2021/03/03 00:23:44;;;;;;;14.35;5.47;;;5.60;99.90;;;;;;10202689;28;20039;-48
2021/03/03 00:29:05;;;;;;;9.27;4.03;;;5.60;99.90;;;;;;10201801;28;20109;-48
2021/03/03 00:34:26;;;;;;;11.52;4.72;;;5.50;99.90;;;;;;10197690;28;20048;-48
2021/03/03 00:39:47;;;;;;;15.38;5.00;;;5.50;99.90;;;;;;10202431;28;20670;-48
2021/03/03 00:45:09;;;;;;;12.30;4.65;;;5.50;99.90;;;;;;10203616;28;20051;-48
2021/03/03 00:50:30;;;;;;;9.68;3.92;;;5.50;99.90;;;;;;10183516;28;20106;-48
2021/03/03 00:55:52;;;;;;;11.68;3.78;;;5.50;99.90;;;;;;10196729;28;20035;-48
2021/03/03 01:01:13;;;;;;;13.88;5.35;;;5.40;99.90;;;;;;10201210;28;20034;-48
2021/03/03 01:06:34;;;;;;;11.80;4.60;;;5.50;99.90;;;;;;10200961;28;20439;-48
2021/03/03 01:11:55;;;;;;;8.73;4.05;;;5.40;99.90;;;;;;10202670;28;20402;-48
2021/03/03 01:17:16;;;;;;;8.95;3.42;;;5.40;99.90;;;;;;10201021;28;20396;-48
2021/03/03 01:22:37;;;;;;;7.90;4.15;;;5.30;99.90;;;;;;10197490;28;20130;-48
2021/03/03 01:27:58;;;;;;;13.68;5.00;;;5.30;99.90;;;;;;10199830;28;20471;-48
2021/03/03 01:33:27;;;;;;;11.65;4.70;;;5.30;99.90;;;;;;10196871;28;20054;-48
2021/03/03 01:38:48;;;;;;;8.00;3.10;;;5.20;99.90;;;;;;10197586;28;20609;-48
2021/03/03 01:44:09;;;;;;;7.45;3.30;;;5.20;99.90;;;;;;10193208;28;20040;-49
2021/03/03 01:49:30;;;;;;;14.23;3.58;;;5.10;99.90;;;;;;10200655;28;20454;-48
2021/03/03 01:54:51;;;;;;;13.85;4.35;;;5.10;99.90;;;;;;10192768;28;20031;-48
2021/03/03 02:00:16;;;;;;;11.23;3.15;;;5.00;99.90;;;;;;10195452;28;21768;-48
2021/03/03 02:05:37;;;;;;;11.77;4.60;;;5.00;99.90;;;;;;10197801;28;20508;-48
2021/03/03 02:11:15;;;;;;;11.48;3.70;;;5.00;99.90;;;;;;10195959;28;20115;-48
2021/03/03 02:16:37;;;;;;;6.18;2.97;;;4.90;99.90;;;;;;10199133;28;20040;-48
2021/03/03 02:22:29;;;;;;;7.65;4.18;;;4.90;99.90;;;;;;10194850;28;20043;-48
2021/03/03 02:27:52;;;;;;;8.68;3.90;;;4.80;99.90;;;;;;10198513;28;20406;-48
2021/03/03 02:33:16;;;;;;;8.40;4.15;;;4.70;99.90;;;;;;10196554;28;20046;-48
2021/03/03 02:38:40;;;;;;;10.48;3.92;;;4.60;99.90;;;;;;10199967;28;20044;-48
2021/03/03 02:44:04;;;;;;;10.55;3.15;;;4.60;99.90;;;;;;10197626;28;20385;-48
2021/03/03 02:49:25;;;;;;;11.32;5.35;;;4.60;99.90;;;;;;10201769;28;20043;-48
2021/03/03 02:54:46;;;;;;;10.90;3.45;;;4.60;99.90;;;;;;10196184;28;20196;-48
2021/03/03 03:00:10;;;;;;;11.48;4.32;;;4.60;99.90;;;;;;10204615;28;20459;-48
2021/03/03 03:05:34;;;;;;;15.27;4.35;;;4.50;99.90;;;;;;10193962;28;20513;-48
2021/03/03 03:11:00;;;;;;;10.05;4.32;;;4.40;99.90;;;;;;10208516;28;20329;-48
2021/03/03 03:16:22;;;;;;;8.00;4.03;;;4.40;99.90;;;;;;10211414;28;20118;-48
2021/03/03 03:21:45;;;;;;;12.60;5.53;;;4.40;99.90;;;;;;10202106;28;20776;-48
2021/03/03 03:27:08;;;;;;;12.30;4.70;;;4.30;99.90;;;;;;10215746;29;20043;-48
2021/03/03 03:32:30;;;;;;;12.55;4.93;;;4.30;99.90;;;;;;10210650;28;20415;-48
2021/03/03 03:37:51;;;;;;;10.65;4.45;;;4.30;99.90;;;;;;10217923;28;20468;-48
2021/03/03 03:43:13;;;;;;;13.23;4.85;;;4.30;99.90;;;;;;10213073;28;20115;-48
2021/03/03 03:48:34;;;;;;;8.95;3.72;;;4.30;99.90;;;;;;10201122;28;20086;-48
2021/03/03 03:53:55;;;;;;;14.75;4.53;;;4.30;99.90;;;;;;10214771;28;20070;-48
2021/03/03 03:59:16;;;;;;;6.47;4.05;;;4.20;99.90;;;;;;10212815;28;20084;-48
2021/03/03 04:04:37;;;;;;;12.68;4.20;;;4.20;99.90;;;;;;10203541;28;20054;-48
2021/03/03 04:09:58;;;;;;;12.85;3.88;;;4.30;99.90;;;;;;10208134;28;20456;-48
2021/03/03 04:15:19;;;;;;;11.85;5.80;;;4.20;99.90;;;;;;10201726;28;20039;-48
2021/03/03 04:20:41;;;;;;;11.30;6.22;;;4.20;99.90;;;;;;10212150;28;20046;-48
2021/03/03 04:26:02;;;;;;;14.10;5.15;;;4.10;99.90;;;;;;10219426;28;20051;-48
2021/03/03 04:31:23;;;;;;;11.52;5.85;;;4.10;99.90;;;;;;10200166;28;20346;-48
2021/03/03 04:36:44;;;;;;;12.18;4.28;;;4.10;99.90;;;;;;10202908;28;20268;-48
2021/03/03 04:42:05;;;;;;;18.90;4.75;;;4.20;99.90;;;;;;10202939;28;20055;-48
2021/03/03 04:47:26;;;;;;;11.88;3.90;;;4.10;99.90;;;;;;10202317;28;20503;-48
2021/03/03 04:52:47;;;;;;;14.70;5.80;;;4.10;99.90;;;;;;10216876;29;20090;-48
2021/03/03 04:58:08;;;;;;;13.15;4.65;;;4.00;99.90;;;;;;10207681;28;20058;-48
2021/03/03 05:03:29;;;;;;;13.60;4.65;;;4.10;99.90;;;;;;10209423;28;20046;-48
2021/03/03 05:08:50;;;;;;;11.13;5.63;;;4.10;99.90;;;;;;10208984;28;20040;-48
2021/03/03 05:14:11;;;;;;;16.75;5.13;;;4.10;99.90;;;;;;10201690;28;20043;-48
2021/03/03 05:19:32;;;;;;;8.52;3.58;;;4.10;99.90;;;;;;10212210;28;20043;-48
2021/03/03 05:24:53;;;;;;;10.27;4.57;;;4.10;99.90;;;;;;10197576;28;20400;-48
2021/03/03 05:30:15;;;;;;;12.43;3.78;;;4.10;99.90;;;;;;10207097;28;20051;-48
2021/03/03 05:35:36;;;;;;;13.35;5.38;;;4.00;99.90;;;;;;10196527;28;20062;-49
2021/03/03 05:40:57;;;;;;;11.27;3.75;;;4.00;99.90;;;;;;10211117;28;20039;-48
2021/03/03 05:46:18;;;;;;;10.95;3.92;;;4.00;99.90;;;;;;10207294;29;20051;-48
2021/03/03 05:51:41;;;;;;;13.13;4.15;;;4.00;99.90;;;;;;10208799;28;20406;-48
2021/03/03 05:57:03;;;;;;;12.07;3.75;;;4.00;99.90;;;;;;10205567;28;20051;-48
2021/03/03 06:02:25;;;;;;;12.02;4.47;;;4.00;99.90;;;;;;10197929;28;20487;-48
2021/03/03 06:07:47;;;;;;;15.48;6.18;;;4.00;99.90;;;;;;10204045;28;20071;-48
2021/03/03 06:13:08;;;;;;;12.82;5.35;;;4.00;99.90;;;;;;10182547;28;20039;-49
2021/03/03 06:18:29;;;;;;;11.85;4.88;;;4.00;99.90;;;;;;10193267;29;20527;-48
2021/03/03 06:24:05;;;;;;;9.82;5.00;;;4.10;99.90;;;;;;10200097;28;20067;-48
2021/03/03 06:29:26;;;;;;;12.70;5.50;;;4.10;99.90;;;;;;10215142;28;20442;-48
2021/03/03 06:34:49;;;;;;;25.08;5.32;;;4.20;99.90;;;;;;10200324;29;20046;-48
2021/03/03 06:40:10;;;;;;;14.27;4.63;;;4.20;99.90;;;;;;10210224;29;20042;-48
2021/03/03 06:45:32;;;;;;;15.93;4.13;;;4.30;99.90;;;;;;10187610;28;20031;-48
2021/03/03 06:50:53;;;;;;;12.73;4.35;;;4.40;99.90;;;;;;10209216;29;20035;-49
2021/03/03 06:56:30;;;;;;;13.07;5.07;;;4.50;99.90;;;;;;10205415;28;20072;-48
2021/03/03 07:01:53;;;;;;;17.98;5.32;;;4.60;99.90;;;;;;10211456;28;20031;-49
2021/03/03 07:07:19;;;;;;;10.10;3.97;;;4.70;99.90;;;;;;10206392;29;20054;-49
2021/03/03 07:12:49;;;;;;;12.63;5.80;;;4.80;99.90;;;;;;10206855;29;20050;-48
2021/03/03 07:18:46;;;;;;;10.27;3.42;;;4.80;99.90;;;;;;10203983;29;20039;-49
2021/03/03 07:24:07;;;;;;;6.53;2.63;;;4.80;99.90;;;;;;10117523;29;20063;-48
2021/03/03 07:29:29;;;;;;;10.57;4.72;;;4.70;99.90;;;;;;10209206;28;20058;-48
2021/03/03 07:34:55;;;;;;;5.97;2.85;;;4.70;99.90;;;;;;10201714;28;20115;-48
2021/03/03 07:40:16;;;;;;;4.03;2.00;;;4.50;99.90;;;;;;10206237;28;20075;-48
2021/03/03 07:45:40;;;;;;;6.20;1.77;;;4.50;99.90;;;;;;10210644;28;20484;-48
2021/03/03 07:51:05;;;;;;;7.22;2.45;;;4.30;99.90;;;;;;10225766;28;20027;-49
2021/03/03 07:56:26;;;;;;;5.30;1.60;;;4.20;99.90;;;;;;10229745;28;20138;-49
2021/03/03 08:01:50;;;;;;;5.35;2.28;;;4.30;99.90;;;;;;10214227;29;20028;-48
2021/03/03 08:07:14;;;;;;;4.95;1.90;;;4.40;99.90;;;;;;10217237;28;20043;-48
2021/03/03 08:13:21;;;;;;;5.95;1.75;;;4.40;99.90;;;;;;10208306;28;20046;-48
2021/03/03 08:18:57;;;;;;;5.32;2.58;;;4.20;99.90;;;;;;10208793;28;20043;-48
2021/03/03 08:24:39;;;;;;;3.25;1.60;;;4.20;99.90;;;;;;10207581;28;20065;-49
2021/03/03 08:30:17;;;;;;;3.40;1.70;;;4.10;99.90;;;;;;10207761;28;20050;-48
2021/03/03 08:35:39;;;;;;;5.70;2.40;;;4.20;99.90;;;;;;10206716;28;20133;-49
2021/03/03 08:41:15;;;;;;;7.80;3.30;;;4.20;99.90;;;;;;10210581;29;20183;-49
2021/03/03 08:46:48;;;;;;;9.32;3.30;;;4.30;99.90;;;;;;10204356;28;20346;-49
2021/03/03 08:52:11;;;;;;;6.32;2.95;;;4.40;99.90;;;;;;10202705;28;20047;-49
2021/03/03 08:57:35;;;;;;;7.32;2.95;;;4.50;99.90;;;;;;10206487;28;20035;-48
2021/03/03 09:02:56;;;;;;;11.82;3.25;;;4.70;99.90;;;;;;10215650;29;20042;-48
2021/03/03 09:08:21;;;;;;;7.25;2.72;;;4.80;99.90;;;;;;10203137;29;20071;-48
2021/03/03 09:13:43;;;;;;;10.65;3.35;;;4.90;99.90;;;;;;10204867;28;20063;-49
2021/03/03 09:19:10;;;;;;;7.82;3.63;;;4.90;99.90;;;;;;10204687;29;20047;-48
2021/03/03 09:24:31;;;;;;;12.80;4.00;;;4.80;99.90;;;;;;10209097;29;20097;-48
2021/03/03 09:29:52;;;;;;;10.90;3.40;;;4.90;99.90;;;;;;10210916;29;20403;-48
2021/03/03 09:35:14;;;;;;;7.13;3.97;;;5.00;99.90;;;;;;10207952;29;20134;-48
2021/03/03 09:40:35;;;;;;;11.55;4.07;;;5.10;99.90;;;;;;10210690;28;20110;-48
2021/03/03 09:45:56;;;;;;;13.07;5.47;;;5.10;99.90;;;;;;10204185;28;20051;-48
2021/03/03 09:51:17;;;;;;;13.52;5.57;;;5.30;99.90;;;;;;10198298;28;20162;-48
2021/03/03 09:56:38;;;;;;;13.10;5.88;;;5.40;99.90;;;;;;10202607;28;20074;-48
2021/03/03 10:02:00;;;;;;;12.60;4.70;;;5.50;99.90;;;;;;10191179;28;20476;-48
2021/03/03 10:07:23;;;;;;;18.00;5.35;;;5.60;99.90;;;;;;10197173;29;20188;-48
2021/03/03 10:12:45;;;;;;;15.25;5.28;;;5.90;99.90;;;;;;10207495;29;20138;-48
2021/03/03 10:18:07;;;;;;;14.30;5.32;;;5.90;99.90;;;;;;10205091;28;20043;-48
2021/03/03 10:23:32;;;;;;;17.70;6.10;;;6.10;99.90;;;;;;10201605;28;20082;-48
2021/03/03 10:28:54;;;;;;;15.10;6.00;;;6.20;99.90;;;;;;10206691;28;20047;-48
2021/03/03 10:34:14;;;;;;;19.15;5.85;;;6.30;99.90;;;;;;10200004;28;20410;-48
2021/03/03 10:39:35;;;;;;;14.65;6.65;;;6.40;99.90;;;;;;10204048;28;20039;-48
2021/03/03 10:44:56;;;;;;;21.70;6.90;;;6.30;99.90;;;;;;10204049;28;20051;-48
2021/03/03 10:50:20;;;;;;;17.65;5.38;;;6.40;99.90;;;;;;10200623;28;20039;-48
2021/03/03 10:55:41;;;;;;;25.58;7.03;;;6.40;99.90;;;;;;10201230;28;20047;-48
2021/03/03 11:01:05;;;;;;;17.98;6.47;;;6.50;99.90;;;;;;10203134;28;20056;-48
2021/03/03 11:06:30;;;;;;;20.48;8.77;;;6.70;99.90;;;;;;10203044;29;20107;-48
2021/03/03 11:11:53;;;;;;;17.10;5.93;;;6.80;99.90;;;;;;10206825;29;20040;-48
2021/03/03 11:17:14;;;;;;;15.75;5.65;;;6.90;99.90;;;;;;10207971;28;20078;-48
2021/03/03 11:22:35;;;;;;;24.27;5.15;;;7.00;99.90;;;;;;10208352;28;20416;-48
2021/03/03 11:27:56;;;;;;;16.85;5.80;;;7.20;99.90;;;;;;10208332;28;20172;-48
2021/03/03 11:33:18;;;;;;;14.15;4.65;;;7.40;99.90;;;;;;10213943;28;20043;-48
2021/03/03 11:38:39;;;;;;;16.25;5.07;;;7.60;99.90;;;;;;10212120;28;20046;-48
2021/03/03 11:44:00;;;;;;;19.25;6.97;;;7.50;99.90;;;;;;10206137;28;20456;-48
2021/03/03 11:49:20;;;;;;;16.70;5.60;;;7.30;99.90;;;;;;10210274;28;20043;-48
2021/03/03 11:54:41;;;;;;;17.25;5.95;;;7.40;99.90;;;;;;10201968;28;20139;-48
2021/03/03 12:00:11;;;;;;;17.88;5.55;;;7.80;99.90;;;;;;10209373;28;20031;-48
2021/03/03 12:05:32;;;;;;;22.25;7.00;;;8.00;99.90;;;;;;10206449;29;20047;-48
2021/03/03 12:10:53;;;;;;;14.20;5.90;;;8.40;99.90;;;;;;10211352;28;20051;-48
2021/03/03 12:16:14;;;;;;;21.50;7.90;;;8.60;99.90;;;;;;10205161;29;20101;-49
2021/03/03 12:21:35;;;;;;;20.42;8.77;;;9.00;99.90;;;;;;10210160;28;20082;-48
2021/03/03 12:26:56;;;;;;;17.60;5.95;;;9.40;99.90;;;;;;10191435;28;20391;-49
2021/03/03 12:32:17;;;;;;;17.67;7.05;;;11.10;99.90;;;;;;10203565;29;20086;-48
2021/03/03 12:37:39;;;;;;;20.05;6.55;;;12.00;99.90;;;;;;10206333;29;20051;-48
2021/03/03 12:43:00;;;;;;;14.07;5.95;;;11.50;99.90;;;;;;10211002;29;20035;-49
2021/03/03 12:48:21;;;;;;;19.60;7.00;;;12.50;99.90;;;;;;10210001;29;20050;-49
2021/03/03 12:53:42;;;;;;;15.90;7.07;;;13.40;99.90;;;;;;10210591;29;20031;-49
2021/03/03 12:59:03;;;;;;;13.65;5.68;;;14.10;99.90;;;;;;10203538;28;20086;-49
2021/03/03 13:04:24;;;;;;;20.77;6.95;;;14.50;99.90;;;;;;10203989;29;20431;-49
2021/03/03 13:09:46;;;;;;;15.60;5.97;;;14.20;99.90;;;;;;10206692;28;20055;-49
2021/03/03 13:15:08;;;;;;;13.90;5.10;;;14.40;99.90;;;;;;10201827;28;20213;-49
2021/03/03 13:20:29;;;;;;;21.90;7.47;;;14.70;99.90;;;;;;10200479;28;20432;-49
2021/03/03 13:25:50;;;;;;;13.05;6.13;;;15.20;99.90;;;;;;10208054;29;20423;-49
2021/03/03 13:31:11;;;;;;;14.38;5.78;;;15.50;99.90;;;;;;10198364;28;21588;-49
2021/03/03 13:36:32;;;;;;;15.50;6.35;;;16.10;99.90;;;;;;10200160;28;20491;-49
2021/03/03 13:41:53;;;;;;;14.93;6.28;;;16.20;99.90;;;;;;10200534;28;20046;-49
2021/03/03 13:47:14;;;;;;;15.48;6.88;;;15.50;99.90;;;;;;10204383;28;20167;-49
2021/03/03 13:52:35;;;;;;;14.85;5.90;;;15.50;99.90;;;;;;10202854;29;20411;-49
2021/03/03 13:57:56;;;;;;;16.98;6.22;;;15.20;99.90;;;;;;10202208;28;20082;-49
2021/03/03 14:03:17;;;;;;;14.52;6.10;;;15.20;99.90;;;;;;10200715;28;20035;-49
2021/03/03 14:08:39;;;;;;;13.88;5.50;;;14.90;99.90;;;;;;10204087;28;20055;-49
2021/03/03 14:14:00;;;;;;;15.70;5.70;;;14.90;99.90;;;;;;10199483;28;20035;-49
2021/03/03 14:19:21;;;;;;;13.75;6.25;;;15.30;99.90;;;;;;10201515;29;20083;-48
2021/03/03 14:24:42;;;;;;;12.07;4.97;;;15.30;99.90;;;;;;10204165;28;20043;-49
2021/03/03 14:30:04;;;;;;;16.67;5.35;;;15.30;99.90;;;;;;10204720;28;20158;-49
2021/03/03 14:35:25;;;;;;;17.10;6.03;;;15.70;99.90;;;;;;10203550;28;20039;-49
2021/03/03 14:40:46;;;;;;;11.13;5.07;;;15.40;99.90;;;;;;10201723;28;20566;-49
2021/03/03 14:46:07;;;;;;;11.70;4.57;;;14.90;99.90;;;;;;10204029;28;20767;-49
2021/03/03 14:51:29;;;;;;;14.55;5.78;;;14.10;99.90;;;;;;10200360;28;20050;-49
2021/03/03 14:56:50;;;;;;;17.58;6.43;;;13.80;99.90;;;;;;10205149;28;20047;-48
2021/03/03 15:02:12;;;;;;;13.85;5.65;;;13.70;99.90;;;;;;10180731;28;20456;-48
2021/03/03 15:07:33;;;;;;;19.67;6.20;;;13.20;99.90;;;;;;10185104;28;20686;-48
2021/03/03 15:12:54;;;;;;;13.15;5.03;;;12.60;99.90;;;;;;10186553;28;20039;-48
2021/03/03 15:18:15;;;;;;;14.18;5.55;;;12.10;99.90;;;;;;10186221;28;20043;-48
2021/03/03 15:23:36;;;;;;;14.15;5.32;;;11.70;99.90;;;;;;10187589;28;20130;-48
2021/03/03 15:28:57;;;;;;;16.45;6.15;;;11.40;99.90;;;;;;10188101;28;20051;-48
2021/03/03 15:34:18;;;;;;;16.52;5.20;;;11.30;99.90;;;;;;10203934;28;20079;-48
2021/03/03 15:39:41;;;;;;;22.55;6.03;;;11.10;99.90;;;;;;10206286;29;20064;-48
2021/03/03 15:45:03;;;;;;;22.90;6.40;;;10.80;99.90;;;;;;10208156;28;20635;-48
2021/03/03 15:50:24;;;;;;;18.75;6.50;;;10.60;99.90;;;;;;10210271;28;20094;-48
2021/03/03 15:55:45;;;;;;;19.50;7.22;;;10.50;99.90;;;;;;10203004;28;20054;-48
2021/03/03 16:01:06;;;;;;;17.10;7.20;;;10.40;99.90;;;;;;10209731;28;20043;-48
2021/03/03 16:06:27;;;;;;;17.90;6.57;;;10.20;99.90;;;;;;10208979;29;20062;-48
2021/03/03 16:11:47;;;;;;;25.45;8.65;;;9.90;99.90;;;;;;10203889;28;20035;-48
2021/03/03 16:17:08;;;;;;;25.50;7.13;;;9.80;99.90;;;;;;10202906;28;20040;-48
2021/03/03 16:22:29;;;;;;;20.10;7.95;;;9.60;99.90;;;;;;10208200;28;20123;-48
2021/03/03 16:27:50;;;;;;;25.33;8.65;;;9.40;99.90;;;;;;10191954;28;20059;-50
2021/03/03 16:33:11;;;;;;;19.27;6.25;;;9.20;99.90;;;;;;10200080;28;20052;-50
2021/03/03 16:38:32;;;;;;;23.92;7.47;;;9.10;99.90;;;;;;10203285;28;20035;-50
2021/03/03 16:43:55;;;;;;;19.35;6.18;;;8.90;99.90;;;;;;10194887;28;20638;-50
2021/03/03 16:49:16;;;;;;;24.70;7.43;;;8.70;99.90;;;;;;10199367;28;20563;-50
2021/03/03 16:54:37;;;;;;;23.45;7.60;;;8.50;99.90;;;;;;10199822;28;20110;-50
2021/03/03 16:59:59;;;;;;;21.48;6.43;;;8.30;99.90;;;;;;10210272;28;20089;-50
2021/03/03 17:05:21;;;;;;;14.90;5.65;;;8.20;99.90;;;;;;10200308;28;20042;-50
2021/03/03 17:10:50;;;;;;;15.02;6.20;;;8.00;99.90;;;;;;10201674;28;20391;-51
2021/03/03 17:16:11;;;;;;;17.80;5.85;;;7.90;99.90;;;;;;10196332;29;20032;-50
2021/03/03 17:21:32;;;;;;;20.33;5.25;;;7.60;99.90;;;;;;10195076;28;20572;-51
2021/03/03 17:26:53;;;;;;;16.73;6.30;;;7.40;99.90;;;;;;10184491;28;20044;-50
2021/03/03 17:32:14;;;;;;;15.80;5.55;;;7.20;99.90;;;;;;10201144;28;20028;-51
2021/03/03 17:37:36;;;;;;;25.17;6.68;;;7.00;99.90;;;;;;10205152;28;20051;-49
2021/03/03 17:42:56;;;;;;;19.02;6.15;;;6.70;99.90;;;;;;10205922;28;20062;-49
2021/03/03 17:48:17;;;;;;;18.23;6.10;;;6.60;99.90;;;;;;10214411;28;20101;-49
2021/03/03 17:53:39;;;;;;;20.88;5.97;;;6.50;99.90;;;;;;10178366;28;20583;-49
2021/03/03 17:58:59;;;;;;;23.10;7.20;;;6.40;99.90;;;;;;10170004;28;20046;-49
2021/03/03 18:04:20;;;;;;;20.27;7.57;;;6.40;99.90;;;;;;10181084;28;20347;-49
2021/03/03 18:09:42;;;;;;;22.20;6.10;;;6.40;99.90;;;;;;10183483;28;20043;-49
2021/03/03 18:15:06;;;;;;;18.75;6.93;;;6.40;99.90;;;;;;10179963;28;20066;-49
2021/03/03 18:20:27;;;;;;;15.90;7.30;;;6.40;99.90;;;;;;10182519;28;20387;-49
2021/03/03 18:25:48;;;;;;;18.50;8.13;;;6.40;99.90;;;;;;10176758;28;20329;-49
2021/03/03 18:31:09;;;;;;;26.30;7.40;;;6.30;99.90;;;;;;10184318;28;20323;-49
2021/03/03 18:36:30;;;;;;;23.95;7.38;;;6.30;99.90;;;;;;10187551;28;20098;-49
2021/03/03 18:41:51;;;;;;;30.58;7.80;;;6.30;99.90;;;;;;10186746;28;20279;-49
2021/03/03 18:47:12;;;;;;;35.50;8.13;;;6.20;99.90;;;;;;10185172;28;20787;-49
2021/03/03 18:52:33;;;;;;;34.05;9.27;;;6.30;99.90;;;;;;10184018;28;20594;-49
2021/03/03 18:57:54;;;;;;;34.97;10.23;;;6.30;99.90;;;;;;10172938;28;20063;-49
2021/03/03 19:03:15;;;;;;;32.67;10.35;;;6.30;99.90;;;;;;10175776;28;20507;-49
2021/03/03 19:08:37;;;;;;;34.55;9.93;;;6.30;99.90;;;;;;10162724;28;20098;-48
2021/03/03 19:13:59;;;;;;;34.50;10.85;;;6.40;99.90;;;;;;10176052;28;21538;-49
2021/03/03 19:19:20;;;;;;;45.90;10.18;;;6.30;99.90;;;;;;10176208;28;20341;-49
2021/03/03 19:24:41;;;;;;;36.47;10.68;;;6.30;99.90;;;;;;10134690;29;20040;-49
2021/03/03 19:30:06;;;;;;;29.25;9.18;;;6.20;99.90;;;;;;10132927;29;20121;-49
2021/03/03 19:35:27;;;;;;;34.97;9.27;;;6.20;99.90;;;;;;10134858;29;20078;-49
2021/03/03 19:40:48;;;;;;;43.45;9.60;;;6.20;99.90;;;;;;10139347;29;20079;-49
2021/03/03 19:46:09;;;;;;;24.88;9.50;;;6.10;99.90;;;;;;10138648;29;20225;-49
2021/03/03 19:51:30;;;;;;;39.97;11.30;;;6.20;99.90;;;;;;10151018;29;20697;-49
2021/03/03 19:56:51;;;;;;;44.47;9.13;;;6.10;99.90;;;;;;10154652;29;20213;-49
2021/03/03 20:02:12;;;;;;;33.72;10.43;;;6.00;99.90;;;;;;10150825;29;20227;-49
2021/03/03 20:07:33;;;;;;;30.15;10.05;;;6.00;99.90;;;;;;10147172;29;20075;-49
2021/03/03 20:12:54;;;;;;;36.72;10.35;;;6.00;99.90;;;;;;10144079;29;20134;-49
2021/03/03 20:18:15;;;;;;;27.27;9.35;;;6.00;99.90;;;;;;10137688;29;20059;-49
2021/03/03 20:23:36;;;;;;;44.05;11.73;;;5.80;99.90;;;;;;10187531;28;20047;-49
2021/03/03 20:28:58;;;;;;;39.00;12.18;;;5.80;99.90;;;;;;10186037;28;20078;-49
2021/03/03 20:34:19;;;;;;;38.15;10.23;;;5.80;99.90;;;;;;10196479;28;20039;-49
2021/03/03 20:39:40;;;;;;;30.20;8.63;;;5.90;99.90;;;;;;10201323;28;20039;-49
2021/03/03 20:45:01;;;;;;;28.90;10.48;;;5.90;99.90;;;;;;10190379;28;20043;-49
2021/03/03 20:50:22;;;;;;;37.50;11.93;;;5.90;99.90;;;;;;10179816;28;20070;-49
2021/03/03 20:55:43;;;;;;;43.40;11.45;;;6.00;99.90;;;;;;10187553;28;20051;-49
2021/03/03 21:01:05;;;;;;;45.35;12.02;;;6.00;99.90;;;;;;10186193;28;20043;-49
2021/03/03 21:06:26;;;;;;;38.00;10.80;;;6.00;99.90;;;;;;10178369;28;20106;-49
2021/03/03 21:11:48;;;;;;;46.67;10.75;;;6.00;99.90;;;;;;10180136;28;20263;-49
2021/03/03 21:17:09;;;;;;;29.98;10.77;;;6.00;99.90;;;;;;10180688;28;20290;-48
2021/03/03 21:22:30;;;;;;;34.38;10.82;;;6.00;99.90;;;;;;10172734;28;20054;-49
2021/03/03 21:27:51;;;;;;;36.35;12.10;;;5.90;99.90;;;;;;10179942;28;20065;-49
2021/03/03 21:33:12;;;;;;;42.80;12.25;;;5.90;99.90;;;;;;10181194;28;20035;-49
2021/03/03 21:38:33;;;;;;;35.10;10.25;;;5.80;99.90;;;;;;10183932;28;20508;-49
2021/03/03 21:43:54;;;;;;;39.50;9.60;;;5.80;99.90;;;;;;10179044;28;20035;-49
2021/03/03 21:49:15;;;;;;;37.00;12.38;;;5.80;99.90;;;;;;10193966;28;20039;-49
2021/03/03 21:54:36;;;;;;;45.42;11.88;;;5.90;99.90;;;;;;10199281;28;20035;-49
2021/03/03 21:59:57;;;;;;;35.17;12.73;;;5.90;99.90;;;;;;10204290;28;20122;-49
2021/03/03 22:05:18;;;;;;;33.00;11.10;;;5.90;99.90;;;;;;10201058;28;20404;-49
2021/03/03 22:10:39;;;;;;;36.15;9.90;;;5.90;99.90;;;;;;10195899;28;20051;-49
2021/03/03 22:16:00;;;;;;;39.75;9.25;;;5.90;99.90;;;;;;10201171;28;20039;-49
2021/03/03 22:21:21;;;;;;;27.55;10.25;;;6.00;99.90;;;;;;10198531;28;20553;-49
2021/03/03 22:26:42;;;;;;;38.35;10.20;;;5.90;99.90;;;;;;10197672;28;20076;-49
2021/03/03 22:32:05;;;;;;;37.17;13.45;;;5.80;99.90;;;;;;10194512;28;20041;-49
2021/03/03 22:37:28;;;;;;;36.10;9.02;;;5.70;99.90;;;;;;10199418;28;20040;-49
2021/03/03 22:42:49;;;;;;;28.73;9.52;;;5.70;99.90;;;;;;10197393;28;20407;-49
2021/03/03 22:48:10;;;;;;;32.67;8.15;;;5.70;99.90;;;;;;10187312;28;20066;-49
2021/03/03 22:53:31;;;;;;;45.13;10.95;;;5.50;99.90;;;;;;10203688;28;20039;-49
2021/03/03 22:58:52;;;;;;;29.17;9.98;;;5.50;99.90;;;;;;10203599;28;20035;-49
2021/03/03 23:04:13;;;;;;;37.60;9.70;;;5.50;99.90;;;;;;10205384;28;20035;-49
2021/03/03 23:09:34;;;;;;;30.85;9.00;;;5.50;99.90;;;;;;10198742;28;20419;-49
2021/03/03 23:14:55;;;;;;;28.73;7.97;;;5.60;99.90;;;;;;10205287;28;20130;-49
2021/03/03 23:20:17;;;;;;;37.30;9.23;;;5.60;99.90;;;;;;10208423;28;20035;-49
2021/03/03 23:25:40;;;;;;;39.60;10.45;;;5.50;99.90;;;;;;10208799;28;20043;-49
2021/03/03 23:31:03;;;;;;;45.05;11.77;;;5.60;99.90;;;;;;10206210;28;20055;-49
2021/03/03 23:36:25;;;;;;;33.22;10.35;;;5.50;99.90;;;;;;10207721;28;21544;-49
2021/03/03 23:41:46;;;;;;;46.00;12.00;;;5.50;99.90;;;;;;10211874;28;20111;-49
2021/03/03 23:47:07;;;;;;;31.85;8.68;;;5.60;99.90;;;;;;10206628;28;20565;-49
2021/03/03 23:52:28;;;;;;;43.10;10.35;;;5.50;99.90;;;;;;10190833;28;20039;-49
2021/03/03 23:57:49;;;;;;;41.58;8.65;;;5.50;99.90;;;;;;10199698;28;20040;-49
